createdAt,value
2019-05-02T00:00:03.323Z,50.844791
2019-05-02T00:01:03.320Z,50.844780
2019-05-02T00:02:03.327Z,50.844795
2019-05-02T00:03:04.437Z,50.844799
2019-05-02T00:04:04.288Z,50.844791
2019-05-02T00:05:03.333Z,50.844788
2019-05-02T00:06:07.451Z,50.844784
2019-05-02T00:07:04.316Z,50.844795
2019-05-02T00:08:03.296Z,50.844791
2019-05-02T00:09:03.915Z,50.844799
2019-05-02T00:10:05.310Z,50.844791
2019-05-02T00:11:03.291Z,50.844791
2019-05-02T00:12:03.309Z,50.844795
2019-05-02T00:13:03.278Z,50.844795
2019-05-02T00:14:03.282Z,50.844810
2019-05-02T00:15:03.581Z,50.844795
2019-05-02T00:16:04.247Z,50.844784
2019-05-02T00:17:03.263Z,50.844784
2019-05-02T00:18:03.247Z,50.844803
2019-05-02T00:19:03.227Z,50.844814
2019-05-02T00:20:03.221Z,50.844791
2019-05-02T00:21:03.301Z,50.844772
2019-05-02T00:22:04.210Z,50.844772
2019-05-02T00:23:03.201Z,50.844772
2019-05-02T00:24:04.196Z,50.844784
2019-05-02T00:25:03.179Z,50.844803
2019-05-02T00:26:03.172Z,50.844807
2019-05-02T00:27:03.276Z,50.844769
2019-05-02T00:28:07.881Z,50.844772
2019-05-02T00:29:04.167Z,50.844780
2019-05-02T00:30:03.172Z,50.844780
2019-05-02T00:31:07.379Z,50.844772
2019-05-02T00:32:04.156Z,50.844784
2019-05-02T00:33:03.140Z,50.844784
2019-05-02T00:34:03.135Z,50.844769
2019-05-02T00:35:03.126Z,50.844761
2019-05-02T00:36:03.114Z,50.844776
2019-05-02T00:37:03.125Z,50.844761
2019-05-02T00:38:03.845Z,50.844757
2019-05-02T00:39:03.102Z,50.844761
2019-05-02T00:40:03.082Z,50.844742
2019-05-02T00:41:03.687Z,50.844769
2019-05-02T00:42:12.502Z,50.844765
2019-05-02T00:43:05.082Z,50.844753
2019-05-02T00:44:06.061Z,50.844784
2019-05-02T00:45:05.090Z,50.844776
2019-05-02T00:46:03.079Z,50.844780
2019-05-02T00:47:06.184Z,50.844780
2019-05-02T00:48:05.061Z,50.844769
2019-05-02T00:49:03.067Z,50.844738
2019-05-02T00:50:06.266Z,50.844761
2019-05-02T00:51:05.048Z,50.844776
2019-05-02T00:52:03.208Z,50.844769
2019-05-02T00:53:07.129Z,50.844761
2019-05-02T00:54:05.022Z,50.844749
2019-05-02T00:55:03.015Z,50.844761
2019-05-02T00:56:05.164Z,50.844772
2019-05-02T00:57:05.010Z,50.844776
2019-05-02T00:58:02.989Z,50.844772
2019-05-02T00:59:07.647Z,50.844776
2019-05-02T01:00:03.985Z,50.844784
2019-05-02T01:01:02.967Z,50.844791
2019-05-02T01:02:05.833Z,50.844772
2019-05-02T01:03:03.959Z,50.844769
2019-05-02T01:04:02.952Z,50.844769
2019-05-02T01:05:03.444Z,50.844765
2019-05-02T01:06:03.934Z,50.844769
2019-05-02T01:07:02.936Z,50.844780
2019-05-02T01:08:03.093Z,50.844780
2019-05-02T01:09:05.804Z,50.844776
2019-05-02T01:10:04.901Z,50.844772
2019-05-02T01:11:02.892Z,50.844776
2019-05-02T01:12:07.761Z,50.844780
2019-05-02T01:13:04.891Z,50.844784
2019-05-02T01:14:02.872Z,50.844776
2019-05-02T01:15:03.214Z,50.844772
2019-05-02T01:16:04.872Z,50.844776
2019-05-02T01:17:34.914Z,50.844780
2019-05-02T01:18:06.063Z,50.844772
2019-05-02T01:19:03.864Z,50.844757
2019-05-02T01:20:02.937Z,50.844757
2019-05-02T01:21:04.153Z,50.844753
2019-05-02T01:22:03.856Z,50.844742
2019-05-02T01:23:02.890Z,50.844742
2019-05-02T01:24:04.812Z,50.844746
2019-05-02T01:25:03.464Z,50.844769
2019-05-02T01:26:02.834Z,50.844757
2019-05-02T01:27:04.589Z,50.844749
2019-05-02T01:28:03.818Z,50.844757
2019-05-02T01:29:02.797Z,50.844749
2019-05-02T01:30:06.011Z,50.844757
2019-05-02T01:31:03.831Z,50.844765
2019-05-02T01:32:02.866Z,50.844765
2019-05-02T01:33:06.610Z,50.844757
2019-05-02T01:34:03.818Z,50.844757
2019-05-02T01:35:02.809Z,50.844761
2019-05-02T01:36:06.455Z,50.844749
2019-05-02T01:37:05.498Z,50.844761
2019-05-02T01:38:02.864Z,50.844761
2019-05-02T01:39:02.890Z,50.844753
2019-05-02T01:40:03.796Z,50.844765
2019-05-02T01:41:02.750Z,50.844776
2019-05-02T01:42:04.131Z,50.844772
2019-05-02T01:43:03.731Z,50.844769
2019-05-02T01:44:02.740Z,50.844784
2019-05-02T01:45:06.654Z,50.844776
2019-05-02T01:46:03.677Z,50.844765
2019-05-02T01:47:02.681Z,50.844765
2019-05-02T01:48:04.989Z,50.844769
2019-05-02T01:49:03.783Z,50.844769
2019-05-02T01:50:02.709Z,50.844765
2019-05-02T01:51:04.262Z,50.844772
2019-05-02T01:52:04.676Z,50.844761
2019-05-02T01:53:02.679Z,50.844765
2019-05-02T01:54:05.097Z,50.844757
2019-05-02T01:55:04.650Z,50.844757
2019-05-02T01:56:02.678Z,50.844765
2019-05-02T01:57:03.898Z,50.844761
2019-05-02T01:58:04.671Z,50.844753
2019-05-02T01:59:02.675Z,50.844761
2019-05-02T02:00:04.166Z,50.844765
2019-05-02T02:01:04.646Z,50.844757
2019-05-02T02:02:02.651Z,50.844761
2019-05-02T02:03:04.148Z,50.844765
2019-05-02T02:04:04.640Z,50.844765
2019-05-02T02:05:02.580Z,50.844765
2019-05-02T02:06:07.423Z,50.844765
2019-05-02T02:07:04.582Z,50.844776
2019-05-02T02:08:02.671Z,50.844765
2019-05-02T02:09:03.398Z,50.844769
2019-05-02T02:10:04.578Z,50.844757
2019-05-02T02:11:02.550Z,50.844742
2019-05-02T02:12:04.919Z,50.844769
2019-05-02T02:13:05.273Z,50.844746
2019-05-02T02:14:07.392Z,50.844749
2019-05-02T02:15:03.643Z,50.844753
2019-05-02T02:16:04.325Z,50.844761
2019-05-02T02:17:03.511Z,50.844746
2019-05-02T02:18:02.510Z,50.844776
2019-05-02T02:19:03.980Z,50.844730
2019-05-02T02:20:03.483Z,50.844749
2019-05-02T02:21:02.481Z,50.844746
2019-05-02T02:22:04.284Z,50.844749
2019-05-02T02:23:03.521Z,50.844746
2019-05-02T02:24:02.535Z,50.844765
2019-05-02T02:25:02.922Z,50.844761
2019-05-02T02:26:06.783Z,50.844749
2019-05-02T02:27:03.493Z,50.844742
2019-05-02T02:28:03.445Z,50.844757
2019-05-02T02:29:03.179Z,50.844761
2019-05-02T02:30:03.483Z,50.844761
2019-05-02T02:31:04.791Z,50.844765
2019-05-02T02:32:03.476Z,50.844769
2019-05-02T02:33:07.587Z,50.844780
2019-05-02T02:34:04.463Z,50.844769
2019-05-02T02:35:03.702Z,50.844749
2019-05-02T02:36:04.441Z,50.844757
2019-05-02T02:37:05.689Z,50.844757
2019-05-02T02:38:04.412Z,50.844749
2019-05-02T02:39:06.873Z,50.844753
2019-05-02T02:40:04.381Z,50.844757
2019-05-02T02:41:06.502Z,50.844757
2019-05-02T02:42:04.438Z,50.844749
2019-05-02T02:43:12.776Z,50.844757
2019-05-02T02:44:04.411Z,50.844761
2019-05-02T02:45:02.954Z,50.844765
2019-05-02T02:46:02.433Z,50.844772
2019-05-02T02:47:02.469Z,50.844765
2019-05-02T02:48:02.683Z,50.844784
2019-05-02T02:49:03.434Z,50.844776
2019-05-02T02:50:05.068Z,50.844761
2019-05-02T02:51:02.404Z,50.844761
2019-05-02T02:52:04.956Z,50.844765
2019-05-02T02:53:04.452Z,50.844769
2019-05-02T02:54:03.945Z,50.844769
2019-05-02T02:55:03.422Z,50.844772
2019-05-02T02:56:03.958Z,50.844776
2019-05-02T02:57:03.983Z,50.844769
2019-05-02T02:58:04.915Z,50.844761
2019-05-02T02:59:03.354Z,50.844761
2019-05-02T03:00:07.899Z,50.844749
2019-05-02T03:01:04.441Z,50.844765
2019-05-02T03:02:10.195Z,50.844772
2019-05-02T03:03:04.348Z,50.844780
2019-05-02T03:04:09.695Z,50.844776
2019-05-02T03:05:03.331Z,50.844788
2019-05-02T03:06:05.611Z,50.844780
2019-05-02T03:07:04.319Z,50.844772
2019-05-02T03:08:05.332Z,50.844757
2019-05-02T03:09:03.303Z,50.844765
2019-05-02T03:10:06.252Z,50.844761
2019-05-02T03:11:04.278Z,50.844765
2019-05-02T03:12:04.468Z,50.844772
2019-05-02T03:13:02.265Z,50.844784
2019-05-02T03:14:07.446Z,50.844765
2019-05-02T03:15:04.258Z,50.844769
2019-05-02T03:16:07.055Z,50.844769
2019-05-02T03:20:53.291Z,50.844757
2019-05-02T03:21:54.359Z,50.844765
2019-05-02T03:22:54.247Z,50.844780
2019-05-02T03:24:02.188Z,50.844788
2019-05-02T03:24:55.685Z,50.844776
2019-05-02T03:25:53.171Z,50.844769
2019-05-02T03:26:55.177Z,50.844757
2019-05-02T03:27:53.281Z,50.844753
2019-05-02T03:28:58.215Z,50.844757
2019-05-02T03:29:54.190Z,50.844761
2019-05-02T03:30:52.234Z,50.844761
2019-05-02T03:32:11.424Z,50.844749
2019-05-02T03:33:06.035Z,50.844746
2019-05-02T03:33:59.774Z,50.844738
2019-05-02T03:34:54.807Z,50.844738
2019-05-02T03:35:53.225Z,50.844742
2019-05-02T03:36:52.187Z,50.844742
2019-05-02T03:37:53.141Z,50.844746
2019-05-02T03:38:53.170Z,50.844746
2019-05-02T03:39:57.465Z,50.844757
2019-05-02T03:40:53.170Z,50.844746
2019-05-02T03:41:55.485Z,50.844761
2019-05-02T03:42:54.110Z,50.844765
2019-05-02T03:44:09.092Z,50.844776
2019-05-02T03:44:56.164Z,50.844780
2019-05-02T03:45:54.112Z,50.844780
2019-05-02T03:46:54.269Z,50.844776
2019-05-02T03:47:54.115Z,50.844780
2019-05-02T03:48:59.010Z,50.844784
2019-05-02T03:49:53.068Z,50.844780
2019-05-02T03:50:53.054Z,50.844780
2019-05-02T03:51:56.164Z,50.844776
2019-05-02T03:52:54.025Z,50.844780
2019-05-02T03:53:52.085Z,50.844788
2019-05-02T03:54:52.759Z,50.844788
2019-05-02T03:55:53.043Z,50.844799
2019-05-02T03:56:53.481Z,50.844788
2019-05-02T03:57:53.043Z,50.844788
2019-05-02T03:58:56.477Z,50.844784
2019-05-02T03:59:54.029Z,50.844784
2019-05-02T04:01:00.405Z,50.844784
2019-05-02T04:01:54.079Z,50.844784
2019-05-02T04:02:59.507Z,50.844765
2019-05-02T04:03:53.967Z,50.844757
2019-05-02T04:04:54.297Z,50.844761
2019-05-02T04:05:53.982Z,50.844769
2019-05-02T04:06:55.045Z,50.844753
2019-05-02T04:07:54.089Z,50.844749
2019-05-02T04:08:58.837Z,50.844780
2019-05-02T04:09:54.051Z,50.844784
2019-05-02T04:10:52.766Z,50.844799
2019-05-02T04:11:53.989Z,50.844791
2019-05-02T04:12:53.036Z,50.844769
2019-05-02T04:13:53.936Z,50.844780
2019-05-02T04:14:55.565Z,50.844784
2019-05-02T04:15:52.951Z,50.844784
2019-05-02T04:16:55.105Z,50.844788
2019-05-02T04:17:53.986Z,50.844795
2019-05-02T04:18:55.743Z,50.844799
2019-05-02T04:19:53.913Z,50.844784
2019-05-02T04:20:52.127Z,50.844784
2019-05-02T04:21:54.975Z,50.844780
2019-05-02T04:22:52.888Z,50.844795
2019-05-02T04:23:51.868Z,50.844799
2019-05-02T04:24:56.944Z,50.844780
2019-05-02T04:25:53.873Z,50.844788
2019-05-02T04:26:56.022Z,50.844788
2019-05-02T04:27:52.840Z,50.844791
2019-05-02T04:28:52.268Z,50.844772
2019-05-02T04:29:51.851Z,50.844776
2019-05-02T04:30:53.921Z,50.844776
2019-05-02T04:31:52.684Z,50.844769
2019-05-02T04:32:55.864Z,50.844765
2019-05-02T04:33:52.787Z,50.844753
2019-05-02T04:34:55.257Z,50.844772
2019-05-02T04:35:53.824Z,50.844776
2019-05-02T04:37:00.261Z,50.844776
2019-05-02T04:37:53.783Z,50.844784
2019-05-02T04:38:52.573Z,50.844791
2019-05-02T04:39:53.713Z,50.844776
2019-05-02T04:40:53.756Z,50.844772
2019-05-02T04:41:52.764Z,50.844780
2019-05-02T04:43:02.012Z,50.844791
2019-05-02T04:43:57.717Z,50.844799
2019-05-02T04:45:14.189Z,50.844795
2019-05-02T04:45:59.171Z,50.844810
2019-05-02T04:46:59.733Z,50.844791
2019-05-02T04:47:58.558Z,50.844784
2019-05-02T04:48:53.725Z,50.844803
2019-05-02T04:49:52.723Z,50.844803
2019-05-02T04:50:58.326Z,50.844795
2019-05-02T04:52:04.526Z,50.844799
2019-05-02T04:52:54.203Z,50.844807
2019-05-02T04:53:52.704Z,50.844810
2019-05-02T04:54:51.710Z,50.844795
2019-05-02T04:56:01.749Z,50.844788
2019-05-02T04:56:55.458Z,50.844784
2019-05-02T04:57:52.691Z,50.844791
2019-05-02T04:58:51.653Z,50.844803
2019-05-02T05:00:02.427Z,50.844799
2019-05-02T05:00:58.030Z,50.844788
2019-05-02T05:01:57.513Z,50.844784
2019-05-02T05:02:53.597Z,50.844788
2019-05-02T05:03:58.147Z,50.844799
2019-05-02T05:04:53.562Z,50.844803
2019-05-02T05:05:51.581Z,50.844795
2019-05-02T05:06:55.886Z,50.844807
2019-05-02T05:07:53.559Z,50.844799
2019-05-02T05:08:51.566Z,50.844818
2019-05-02T05:09:58.280Z,50.844810
2019-05-02T05:10:53.569Z,50.844803
2019-05-02T05:11:53.906Z,50.844788
2019-05-02T05:12:53.550Z,50.844791
2019-05-02T05:13:52.389Z,50.844795
2019-05-02T05:14:52.539Z,50.844799
2019-05-02T05:15:52.084Z,50.844791
2019-05-02T05:16:55.685Z,50.844795
2019-05-02T05:17:53.539Z,50.844799
2019-05-02T05:18:53.210Z,50.844814
2019-05-02T05:19:53.353Z,50.844814
2019-05-02T05:20:53.017Z,50.844810
2019-05-02T05:21:56.735Z,50.844807
2019-05-02T05:22:52.499Z,50.844810
2019-05-02T05:23:51.659Z,50.844803
2019-05-02T05:24:52.545Z,50.844818
2019-05-02T05:25:55.669Z,50.844818
2019-05-02T05:26:52.452Z,50.844841
2019-05-02T05:27:52.526Z,50.844814
2019-05-02T05:28:53.464Z,50.844849
2019-05-02T05:29:53.728Z,50.844822
2019-05-02T05:30:53.433Z,50.844814
2019-05-02T05:31:55.182Z,50.844826
2019-05-02T05:32:53.458Z,50.844822
2019-05-02T05:33:51.415Z,50.844826
2019-05-02T05:34:51.440Z,50.844810
2019-05-02T05:35:52.730Z,50.844799
2019-05-02T05:36:52.423Z,50.844810
2019-05-02T05:37:53.087Z,50.844803
2019-05-02T05:38:52.429Z,50.844791
2019-05-02T05:39:52.676Z,50.844803
2019-05-02T05:40:52.338Z,50.844795
2019-05-02T05:41:52.465Z,50.844810
2019-05-02T05:42:52.340Z,50.844807
2019-05-02T05:43:53.608Z,50.844803
2019-05-02T05:44:52.295Z,50.844833
2019-05-02T05:45:56.377Z,50.844807
2019-05-02T05:46:53.367Z,50.844803
2019-05-02T05:47:52.409Z,50.844799
2019-05-02T05:48:53.878Z,50.844810
2019-05-02T05:49:52.270Z,50.844818
2019-05-02T05:50:53.277Z,50.844814
2019-05-02T05:51:54.391Z,50.844803
2019-05-02T05:52:53.282Z,50.844780
2019-05-02T05:53:52.333Z,50.844807
2019-05-02T05:54:53.222Z,50.844807
2019-05-02T05:55:53.643Z,50.844830
2019-05-02T05:56:53.274Z,50.844826
2019-05-02T05:57:59.502Z,50.844803
2019-05-02T05:58:53.278Z,50.844818
2019-05-02T05:59:52.238Z,50.844841
2019-05-02T06:00:55.358Z,50.844814
2019-05-02T06:01:53.214Z,50.844826
2019-05-02T06:02:56.248Z,50.844795
2019-05-02T06:03:53.267Z,50.844799
2019-05-02T06:04:55.310Z,50.844830
2019-05-02T06:05:52.231Z,50.844852
2019-05-02T06:06:54.034Z,50.844822
2019-05-02T06:07:53.203Z,50.844822
2019-05-02T06:08:54.066Z,50.844826
2019-05-02T06:09:52.172Z,50.844841
2019-05-02T06:10:51.183Z,50.844818
2019-05-02T06:11:55.475Z,50.844849
2019-05-02T06:12:51.291Z,50.844826
2019-05-02T06:13:51.156Z,50.844818
2019-05-02T06:14:51.187Z,50.844814
2019-05-02T06:16:01.571Z,50.844810
2019-05-02T06:16:53.690Z,50.844826
2019-05-02T06:17:51.138Z,50.844799
2019-05-02T06:18:51.111Z,50.844810
2019-05-02T06:19:53.566Z,50.844826
2019-05-02T06:20:52.090Z,50.844814
2019-05-02T06:21:51.094Z,50.844807
2019-05-02T06:22:55.053Z,50.844795
2019-05-02T06:23:52.114Z,50.844791
2019-05-02T06:24:52.106Z,50.844776
2019-05-02T06:25:51.125Z,50.844791
2019-05-02T06:26:51.803Z,50.844776
2019-05-02T06:27:52.016Z,50.844791
2019-05-02T06:28:51.011Z,50.844795
2019-05-02T06:29:55.633Z,50.844799
2019-05-02T06:30:53.004Z,50.844803
2019-05-02T06:31:51.845Z,50.844780
2019-05-02T06:32:54.992Z,50.844772
2019-05-02T06:33:53.025Z,50.844784
2019-05-02T06:34:50.993Z,50.844803
2019-05-02T06:35:51.838Z,50.844803
2019-05-02T06:36:53.122Z,50.844795
2019-05-02T06:37:52.002Z,50.844795
2019-05-02T06:38:52.342Z,50.844791
2019-05-02T06:39:53.689Z,50.844795
2019-05-02T06:40:51.016Z,50.844788
2019-05-02T06:41:52.119Z,50.844795
2019-05-02T06:42:52.983Z,50.844791
2019-05-02T06:43:51.096Z,50.844788
2019-05-02T06:44:54.962Z,50.844791
2019-05-02T06:45:52.908Z,50.844791
2019-05-02T06:46:51.855Z,50.844788
2019-05-02T06:47:50.941Z,50.844803
2019-05-02T06:48:52.250Z,50.844799
2019-05-02T06:49:56.155Z,50.844795
2019-05-02T06:50:52.696Z,50.844788
2019-05-02T06:51:56.329Z,50.844788
2019-05-02T06:52:52.964Z,50.844795
2019-05-02T06:53:50.922Z,50.844791
2019-05-02T06:54:54.070Z,50.844780
2019-05-02T06:55:54.194Z,50.844780
2019-05-02T06:56:51.108Z,50.844784
2019-05-02T06:57:51.792Z,50.844795
2019-05-02T06:58:51.961Z,50.844780
2019-05-02T06:59:54.647Z,50.844791
2019-05-02T07:00:57.979Z,50.844788
2019-05-02T07:01:57.560Z,50.844776
2019-05-02T07:02:52.891Z,50.844788
2019-05-02T07:03:51.694Z,50.844788
2019-05-02T07:04:54.711Z,50.844784
2019-05-02T07:05:53.194Z,50.844791
2019-05-02T07:06:58.902Z,50.844784
2019-05-02T07:07:53.005Z,50.844791
2019-05-02T07:08:51.004Z,50.844780
2019-05-02T07:09:50.943Z,50.844803
2019-05-02T07:10:50.819Z,50.844788
2019-05-02T07:11:57.288Z,50.844776
2019-05-02T07:13:09.223Z,50.844788
2019-05-02T07:13:51.799Z,50.844780
2019-05-02T07:14:50.798Z,50.844772
2019-05-02T07:15:50.795Z,50.844784
2019-05-02T07:16:54.440Z,50.844784
2019-05-02T07:18:17.701Z,50.844780
2019-05-02T07:18:50.678Z,50.844788
2019-05-02T07:19:50.684Z,50.844776
2019-05-02T07:20:50.670Z,50.844776
2019-05-02T07:21:53.063Z,50.844772
2019-05-02T07:22:52.663Z,50.844784
2019-05-02T07:23:53.525Z,50.844788
2019-05-02T07:24:51.664Z,50.844776
2019-05-02T07:25:50.641Z,50.844772
2019-05-02T07:26:52.086Z,50.844772
2019-05-02T07:27:52.639Z,50.844788
2019-05-02T07:28:50.634Z,50.844784
2019-05-02T07:29:52.227Z,50.844788
2019-05-02T07:30:54.644Z,50.844772
2019-05-02T07:31:53.449Z,50.844765
2019-05-02T07:32:50.619Z,50.844776
2019-05-02T07:33:50.623Z,50.844784
2019-05-02T07:34:50.614Z,50.844795
2019-05-02T07:35:50.623Z,50.844791
2019-05-02T07:36:50.609Z,50.844769
2019-05-02T07:37:50.610Z,50.844776
2019-05-02T07:38:50.592Z,50.844780
2019-05-02T07:39:50.607Z,50.844799
2019-05-02T07:40:52.951Z,50.844791
2019-05-02T07:41:51.590Z,50.844788
2019-05-02T07:42:50.588Z,50.844765
2019-05-02T07:43:52.067Z,50.844761
2019-05-02T07:44:52.576Z,50.844772
2019-05-02T07:45:50.575Z,50.844765
2019-05-02T07:46:52.074Z,50.844765
2019-05-02T07:47:51.548Z,50.844757
2019-05-02T07:48:54.653Z,50.844765
2019-05-02T07:49:51.535Z,50.844769
2019-05-02T07:50:50.923Z,50.844776
2019-05-02T07:51:52.394Z,50.844772
2019-05-02T07:52:52.535Z,50.844769
2019-05-02T07:53:50.527Z,50.844761
2019-05-02T07:54:50.526Z,50.844761
2019-05-02T07:55:50.519Z,50.844769
2019-05-02T07:56:53.478Z,50.844761
2019-05-02T07:57:51.494Z,50.844765
2019-05-02T07:58:50.483Z,50.844769
2019-05-02T07:59:55.061Z,50.844780
2019-05-02T08:00:51.510Z,50.844780
2019-05-02T08:01:50.955Z,50.844772
2019-05-02T08:02:50.490Z,50.844776
2019-05-02T08:03:50.483Z,50.844784
2019-05-02T08:04:50.479Z,50.844757
2019-05-02T08:05:54.559Z,50.844772
2019-05-02T08:06:51.488Z,50.844772
2019-05-02T08:07:53.407Z,50.844788
2019-05-02T08:08:51.461Z,50.844780
2019-05-02T08:09:50.474Z,50.844780
2019-05-02T08:10:53.851Z,50.844788
2019-05-02T08:11:52.483Z,50.844776
2019-05-02T08:12:50.429Z,50.844765
2019-05-02T08:13:55.512Z,50.844749
2019-05-02T08:14:51.419Z,50.844772
2019-05-02T08:15:52.278Z,50.844776
2019-05-02T08:17:04.731Z,50.844780
2019-05-02T08:17:53.848Z,50.844776
2019-05-02T08:18:51.388Z,50.844776
2019-05-02T08:19:50.381Z,50.844769
2019-05-02T08:20:51.048Z,50.844765
2019-05-02T08:21:52.379Z,50.844769
2019-05-02T08:22:50.645Z,50.844761
2019-05-02T08:23:51.389Z,50.844757
2019-05-02T08:24:51.254Z,50.844757
2019-05-02T08:25:50.378Z,50.844765
2019-05-02T08:26:53.356Z,50.844780
2019-05-02T08:27:52.359Z,50.844769
2019-05-02T08:28:51.881Z,50.844757
2019-05-02T08:29:51.341Z,50.844757
2019-05-02T08:30:50.336Z,50.844753
2019-05-02T08:31:50.347Z,50.844761
2019-05-02T08:32:50.317Z,50.844765
2019-05-02T08:33:50.311Z,50.844761
2019-05-02T08:34:52.056Z,50.844742
2019-05-02T08:35:51.307Z,50.844746
2019-05-02T08:36:50.304Z,50.844738
2019-05-02T08:37:50.283Z,50.844734
2019-05-02T08:38:53.679Z,50.844749
2019-05-02T08:39:51.259Z,50.844753
2019-05-02T08:40:51.259Z,50.844761
2019-05-02T08:41:51.204Z,50.844753
2019-05-02T08:42:52.274Z,50.844742
2019-05-02T08:43:50.256Z,50.844742
2019-05-02T08:44:51.580Z,50.844734
2019-05-02T08:45:52.236Z,50.844746
2019-05-02T08:46:51.342Z,50.844738
2019-05-02T08:47:51.235Z,50.844727
2019-05-02T08:48:50.831Z,50.844730
2019-05-02T08:49:54.900Z,50.844734
2019-05-02T08:50:52.202Z,50.844742
2019-05-02T08:51:50.198Z,50.844738
2019-05-02T08:52:50.204Z,50.844734
2019-05-02T08:53:52.130Z,50.844723
2019-05-02T08:54:52.181Z,50.844727
2019-05-02T08:55:50.197Z,50.844734
2019-05-02T08:56:53.473Z,50.844734
2019-05-02T08:57:52.186Z,50.844734
2019-05-02T08:58:51.159Z,50.844730
2019-05-02T08:59:50.155Z,50.844719
2019-05-02T09:00:50.147Z,50.844723
2019-05-02T09:01:51.432Z,50.844730
2019-05-02T09:02:50.155Z,50.844746
2019-05-02T09:03:55.520Z,50.844730
2019-05-02T09:04:58.670Z,50.844734
2019-05-02T09:06:04.970Z,50.844746
2019-05-02T09:06:53.202Z,50.844742
2019-05-02T09:07:52.125Z,50.844738
2019-05-02T09:08:51.383Z,50.844723
2019-05-02T09:09:51.086Z,50.844719
2019-05-02T09:10:50.075Z,50.844723
2019-05-02T09:12:04.934Z,50.844730
2019-05-02T09:12:52.198Z,50.844734
2019-05-02T09:13:52.636Z,50.844730
2019-05-02T09:14:51.966Z,50.844730
2019-05-02T09:15:53.582Z,50.844734
2019-05-02T09:16:52.382Z,50.844730
2019-05-02T09:17:56.291Z,50.844727
2019-05-02T09:18:54.186Z,50.844727
2019-05-02T09:20:00.364Z,50.844711
2019-05-02T09:20:56.364Z,50.844711
2019-05-02T09:21:52.552Z,50.844715
2019-05-02T09:22:52.134Z,50.844715
2019-05-02T09:23:51.989Z,50.844727
2019-05-02T09:24:52.035Z,50.844727
2019-05-02T09:25:51.953Z,50.844727
2019-05-02T09:26:51.918Z,50.844719
2019-05-02T09:27:52.646Z,50.844715
2019-05-02T09:28:51.705Z,50.844730
2019-05-02T09:29:51.841Z,50.844727
2019-05-02T09:30:52.300Z,50.844730
2019-05-02T09:31:49.951Z,50.844738
2019-05-02T09:32:52.214Z,50.844742
2019-05-02T09:33:51.948Z,50.844730
2019-05-02T09:34:51.830Z,50.844727
2019-05-02T09:35:51.583Z,50.844719
2019-05-02T09:36:49.945Z,50.844723
2019-05-02T09:37:49.932Z,50.844734
2019-05-02T09:38:55.985Z,50.844734
2019-05-02T09:39:52.498Z,50.844738
2019-05-02T09:40:54.569Z,50.844734
2019-05-02T09:41:52.742Z,50.844738
2019-05-02T09:42:53.456Z,50.844738
2019-05-02T09:43:52.374Z,50.844738
2019-05-02T09:44:55.706Z,50.844742
2019-05-02T09:45:52.155Z,50.844746
2019-05-02T09:46:53.065Z,50.844738
2019-05-02T09:47:57.313Z,50.844742
2019-05-02T09:48:52.048Z,50.844742
2019-05-02T09:49:53.057Z,50.844742
2019-05-02T09:50:49.860Z,50.844738
2019-05-02T09:51:50.291Z,50.844769
2019-05-02T09:52:52.386Z,50.844749
2019-05-02T09:53:52.211Z,50.844746
2019-05-02T09:54:51.793Z,50.844749
2019-05-02T09:55:55.036Z,50.844761
2019-05-02T09:56:52.463Z,50.844757
2019-05-02T09:57:51.766Z,50.844761
2019-05-02T09:58:55.058Z,50.844757
2019-05-02T09:59:55.721Z,50.844765
2019-05-02T10:00:52.528Z,50.844753
2019-05-02T10:01:49.871Z,50.844749
2019-05-02T10:02:49.797Z,50.844753
2019-05-02T10:03:51.705Z,50.844746
2019-05-02T10:04:49.798Z,50.844753
2019-05-02T10:05:49.778Z,50.844772
2019-05-02T10:06:52.280Z,50.844765
2019-05-02T10:07:49.767Z,50.844757
2019-05-02T10:08:51.826Z,50.844753
2019-05-02T10:09:51.784Z,50.844749
2019-05-02T10:10:49.761Z,50.844769
2019-05-02T10:11:49.769Z,50.844769
2019-05-02T10:12:49.736Z,50.844769
2019-05-02T10:13:51.735Z,50.844757
2019-05-02T10:14:49.717Z,50.844765
2019-05-02T10:15:49.723Z,50.844761
2019-05-02T10:16:49.740Z,50.844761
2019-05-02T10:17:51.782Z,50.844772
2019-05-02T10:18:49.708Z,50.844784
2019-05-02T10:19:55.029Z,50.844780
2019-05-02T10:20:52.453Z,50.844749
2019-05-02T10:21:54.323Z,50.844772
2019-05-02T10:22:53.022Z,50.844795
2019-05-02T10:23:51.725Z,50.844776
2019-05-02T10:24:52.053Z,50.844780
2019-05-02T10:25:49.676Z,50.844772
2019-05-02T10:26:49.652Z,50.844772
2019-05-02T10:27:49.653Z,50.844769
2019-05-02T10:28:52.784Z,50.844769
2019-05-02T10:29:49.640Z,50.844761
2019-05-02T10:30:52.594Z,50.844772
2019-05-02T10:31:52.627Z,50.844761
2019-05-02T10:32:52.905Z,50.844772
2019-05-02T10:33:52.936Z,50.844788
2019-05-02T10:34:54.319Z,50.844776
2019-05-02T10:35:52.436Z,50.844784
2019-05-02T10:36:54.211Z,50.844784
2019-05-02T10:37:52.100Z,50.844791
2019-05-02T10:38:54.800Z,50.844772
2019-05-02T10:39:52.208Z,50.844776
2019-05-02T10:40:54.563Z,50.844780
2019-05-02T10:41:52.649Z,50.844788
2019-05-02T10:42:49.568Z,50.844799
2019-05-02T10:43:51.965Z,50.844807
2019-05-02T10:44:52.147Z,50.844810
2019-05-02T10:45:52.857Z,50.844795
2019-05-02T10:46:52.291Z,50.844791
2019-05-02T10:47:49.530Z,50.844791
2019-05-02T10:48:49.525Z,50.844795
2019-05-02T10:49:49.512Z,50.844807
2019-05-02T10:50:49.536Z,50.844814
2019-05-02T10:51:51.844Z,50.844814
2019-05-02T10:52:49.493Z,50.844810
2019-05-02T10:53:52.627Z,50.844784
2019-05-02T10:54:52.839Z,50.844799
2019-05-02T10:55:49.486Z,50.844807
2019-05-02T10:56:49.467Z,50.844807
2019-05-02T10:57:49.467Z,50.844814
2019-05-02T10:58:49.451Z,50.844810
2019-05-02T10:59:49.458Z,50.844814
2019-05-02T11:00:49.455Z,50.844818
2019-05-02T11:01:49.460Z,50.844807
2019-05-02T11:02:49.443Z,50.844810
2019-05-02T11:03:51.558Z,50.844799
2019-05-02T11:04:49.441Z,50.844803
2019-05-02T11:05:49.411Z,50.844784
2019-05-02T11:06:49.418Z,50.844788
2019-05-02T11:07:49.403Z,50.844799
2019-05-02T11:08:49.393Z,50.844788
2019-05-02T11:09:49.386Z,50.844784
2019-05-02T11:10:49.408Z,50.844795
2019-05-02T11:11:49.407Z,50.844803
2019-05-02T11:12:49.401Z,50.844795
2019-05-02T11:13:55.388Z,50.844799
2019-05-02T11:14:51.693Z,50.844795
2019-05-02T11:15:49.362Z,50.844795
2019-05-02T11:16:49.364Z,50.844795
2019-05-02T11:17:49.350Z,50.844791
2019-05-02T11:18:49.355Z,50.844799
2019-05-02T11:19:49.333Z,50.844799
2019-05-02T11:20:49.331Z,50.844807
2019-05-02T11:21:56.422Z,50.844791
2019-05-02T11:22:54.393Z,50.844795
2019-05-02T11:23:52.440Z,50.844784
2019-05-02T11:24:49.289Z,50.844799
2019-05-02T11:25:49.290Z,50.844795
2019-05-02T11:26:49.291Z,50.844791
2019-05-02T11:27:49.277Z,50.844780